Time;durP1;ratioP1;P1;durP2;ratioP2;P2;SDS_P1;SDS_P2;PMS_P1;PMS_P2;Temp;Humidity;BMP_temperature;BMP_pressure;BME280_temperature;BME280_humidity;BME280_pressure;Samples;Min_cycle;Max_cycle;Signal;HPM_P1;HPM_P2
2021/11/23 00:01:09;;;;;;;53.35;26.08;;;;;;;6.50;100.00;100688.59;5073498;28;20084;-76
2021/11/23 00:03:37;;;;;;;57.58;26.63;;;;;;;6.54;100.00;100691.06;5074317;28;20123;-76
2021/11/23 00:06:06;;;;;;;52.47;24.27;;;;;;;6.64;100.00;100702.19;5074093;28;20051;-76
2021/11/23 00:08:34;;;;;;;53.20;26.67;;;;;;;6.56;100.00;100697.19;5073260;28;20417;-77
2021/11/23 00:11:03;;;;;;;52.50;25.75;;;;;;;6.56;100.00;100696.28;5073959;28;20049;-77
2021/11/23 00:13:31;;;;;;;51.28;25.23;;;;;;;6.61;100.00;100702.31;5074162;28;20044;-81
2021/11/23 00:15:59;;;;;;;54.25;26.13;;;;;;;6.61;100.00;100704.94;5073864;28;20444;-81
2021/11/23 00:18:29;;;;;;;51.28;26.95;;;;;;;6.59;100.00;100709.44;5073793;28;20477;-81
2021/11/23 00:20:57;;;;;;;51.90;25.40;;;;;;;6.56;100.00;100714.84;5073754;28;20378;-81
2021/11/23 00:23:26;;;;;;;57.38;27.17;;;;;;;6.47;100.00;100716.06;5073470;28;20048;-80
2021/11/23 00:25:54;;;;;;;53.05;25.50;;;;;;;6.47;100.00;100715.22;5072683;28;20417;-81
2021/11/23 00:28:22;;;;;;;51.55;26.63;;;;;;;6.53;100.00;100725.56;5073635;28;20047;-80
2021/11/23 00:30:51;;;;;;;52.03;26.20;;;;;;;6.53;100.00;100730.88;5073655;28;20045;-79
2021/11/23 00:33:19;;;;;;;53.20;25.45;;;;;;;6.57;100.00;100728.06;5072506;28;20437;-80
2021/11/23 00:35:49;;;;;;;58.13;26.63;;;;;;;6.50;100.00;100734.50;5073767;28;20458;-79
2021/11/23 00:38:17;;;;;;;52.50;26.25;;;;;;;6.40;100.00;100734.88;5073391;28;20096;-79
2021/11/23 00:40:46;;;;;;;52.75;25.63;;;;;;;6.45;100.00;100741.72;5072410;28;20072;-79
2021/11/23 00:43:14;;;;;;;53.33;25.45;;;;;;;6.59;100.00;100743.91;5073064;28;20053;-78
2021/11/23 00:45:43;;;;;;;52.90;26.13;;;;;;;6.63;100.00;100748.16;5073638;28;20462;-79
2021/11/23 00:48:12;;;;;;;53.42;25.65;;;;;;;6.62;100.00;100754.41;5073296;28;20094;-78
2021/11/23 00:50:40;;;;;;;52.42;26.17;;;;;;;6.67;100.00;100754.25;5073530;28;20072;-78
2021/11/23 00:53:10;;;;;;;49.95;23.83;;;;;;;6.69;100.00;100763.00;5072883;28;20044;-78
2021/11/23 00:55:38;;;;;;;52.92;25.20;;;;;;;6.66;100.00;100756.03;5073501;28;20067;-80
2021/11/23 00:58:06;;;;;;;50.03;26.13;;;;;;;6.59;100.00;100767.78;5073181;28;20549;-80
2021/11/23 01:00:35;;;;;;;55.45;26.83;;;;;;;6.54;100.00;100757.31;5073396;28;20402;-80
2021/11/23 01:03:05;;;;;;;53.38;26.00;;;;;;;6.49;100.00;100767.22;5073456;28;20045;-80
2021/11/23 01:05:33;;;;;;;54.00;26.52;;;;;;;6.43;100.00;100759.47;5073366;28;20090;-80
2021/11/23 01:08:02;;;;;;;51.15;26.33;;;;;;;6.50;100.00;100757.50;5073097;28;20569;-80
2021/11/23 01:10:31;;;;;;;50.17;25.27;;;;;;;6.51;100.00;100757.44;5073022;28;20453;-79
2021/11/23 01:13:00;;;;;;;51.38;25.70;;;;;;;6.48;100.00;100754.91;5073286;28;20047;-78
2021/11/23 01:15:28;;;;;;;51.78;25.23;;;;;;;6.44;100.00;100752.41;5072643;28;20304;-78
2021/11/23 01:17:56;;;;;;;54.08;25.60;;;;;;;6.48;100.00;100756.69;5072935;28;20166;-79
2021/11/23 01:20:25;;;;;;;51.47;26.38;;;;;;;6.40;100.00;100745.50;5072653;28;20048;-78
2021/11/23 01:22:54;;;;;;;53.42;25.13;;;;;;;6.46;100.00;100756.72;5072852;28;20456;-78
2021/11/23 01:25:22;;;;;;;55.72;26.55;;;;;;;6.37;100.00;100766.78;5072695;28;20078;-78
2021/11/23 01:27:52;;;;;;;54.15;25.98;;;;;;;6.26;100.00;100770.66;5073083;28;20445;-79
2021/11/23 01:30:20;;;;;;;51.63;25.13;;;;;;;6.28;100.00;100768.84;5072781;28;20045;-79
2021/11/23 01:32:49;;;;;;;57.60;27.08;;;;;;;6.18;100.00;100762.13;5072738;28;20386;-78
2021/11/23 01:35:17;;;;;;;50.80;25.10;;;;;;;6.25;100.00;100763.63;5072742;28;20044;-78
2021/11/23 01:37:45;;;;;;;57.53;25.77;;;;;;;6.20;100.00;100757.63;5073039;28;20143;-79
2021/11/23 01:40:15;;;;;;;53.20;24.15;;;;;;;6.36;100.00;100760.59;5076506;28;20044;-78
2021/11/23 01:42:45;;;;;;;53.88;26.80;;;;;;;6.24;100.00;100761.91;5077296;28;20044;-80
2021/11/23 01:45:14;;;;;;;55.00;26.27;;;;;;;6.30;100.00;100759.06;5076518;28;20044;-78
2021/11/23 01:47:43;;;;;;;51.03;24.67;;;;;;;6.28;100.00;100763.53;5077028;28;20135;-78
2021/11/23 01:50:13;;;;;;;51.58;25.33;;;;;;;6.27;100.00;100763.56;5076438;28;20090;-77
2021/11/23 01:52:43;;;;;;;47.38;24.20;;;;;;;6.34;100.00;100775.69;5077058;28;20055;-78
2021/11/23 01:55:12;;;;;;;48.45;25.40;;;;;;;6.34;100.00;100767.75;5076594;28;20045;-77
2021/11/23 01:57:41;;;;;;;50.65;24.13;;;;;;;6.33;100.00;100776.63;5076434;28;20055;-78
2021/11/23 02:00:12;;;;;;;53.35;24.55;;;;;;;6.25;100.00;100776.88;5076770;28;20379;-78
2021/11/23 02:02:43;;;;;;;48.42;23.92;;;;;;;6.24;100.00;100783.09;5076646;28;20559;-78
2021/11/23 02:05:12;;;;;;;50.17;25.02;;;;;;;6.20;100.00;100785.91;5076744;28;20048;-77
2021/11/23 02:07:42;;;;;;;45.90;23.38;;;;;;;6.29;100.00;100786.47;5076560;28;20069;-78
2021/11/23 02:10:12;;;;;;;42.92;22.67;;;;;;;6.21;100.00;100793.81;5075044;28;20048;-79
2021/11/23 02:12:40;;;;;;;38.90;21.90;;;;;;;6.21;100.00;100792.94;5076359;28;20044;-79
2021/11/23 02:15:11;;;;;;;40.67;20.25;;;;;;;6.18;100.00;100801.88;5076449;28;20073;-79
2021/11/23 02:17:39;;;;;;;37.10;19.85;;;;;;;6.13;100.00;100798.50;5076487;28;20397;-80
2021/11/23 02:20:11;;;;;;;37.55;18.88;;;;;;;6.13;100.00;100798.50;5076121;28;20048;-79
2021/11/23 02:22:40;;;;;;;33.60;17.88;;;;;;;6.04;100.00;100801.44;5076338;28;20044;-80
2021/11/23 02:25:10;;;;;;;33.15;16.83;;;;;;;6.07;100.00;100805.75;5076247;28;20041;-79
2021/11/23 02:27:39;;;;;;;33.42;16.88;;;;;;;5.97;100.00;100807.84;5075163;28;20045;-79
2021/11/23 02:30:10;;;;;;;32.70;17.58;;;;;;;5.99;100.00;100809.53;5076189;28;20106;-79
2021/11/23 02:32:41;;;;;;;32.67;16.45;;;;;;;6.08;100.00;100803.09;5076333;28;20098;-80
2021/11/23 02:35:12;;;;;;;33.85;17.17;;;;;;;6.12;100.00;100810.00;5076255;28;20044;-78
2021/11/23 02:37:47;;;;;;;34.05;17.17;;;;;;;5.93;100.00;100806.22;5074452;28;20047;-78
2021/11/23 02:40:16;;;;;;;32.67;17.75;;;;;;;5.90;100.00;100804.53;5075841;28;20436;-79
2021/11/23 02:42:45;;;;;;;30.90;16.85;;;;;;;5.97;100.00;100815.78;5075895;28;20055;-78
2021/11/23 02:45:17;;;;;;;33.17;16.30;;;;;;;5.94;100.00;100815.91;5075854;28;20508;-80
2021/11/23 02:47:46;;;;;;;31.33;16.45;;;;;;;5.88;100.00;100821.34;5076052;28;20123;-80
2021/11/23 02:50:21;;;;;;;32.03;17.00;;;;;;;5.96;100.00;100816.69;5075597;28;20127;-79
2021/11/23 02:52:51;;;;;;;31.27;16.48;;;;;;;5.94;100.00;100819.41;5075675;28;20143;-79
2021/11/23 02:55:21;;;;;;;30.05;16.13;;;;;;;5.91;100.00;100813.34;5074981;28;20119;-79
2021/11/23 02:57:50;;;;;;;32.28;16.77;;;;;;;5.86;100.00;100809.94;5075890;28;20122;-79
2021/11/23 03:00:22;;;;;;;28.48;15.52;;;;;;;5.91;100.00;100816.88;5075381;28;20098;-77
2021/11/23 03:02:50;;;;;;;30.75;16.60;;;;;;;5.77;100.00;100810.22;5075294;28;20041;-76
2021/11/23 03:05:21;;;;;;;34.03;16.85;;;;;;;5.73;100.00;100810.34;5075259;28;20037;-75
2021/11/23 03:07:51;;;;;;;32.13;16.70;;;;;;;5.69;100.00;100821.06;5075827;28;20442;-75
2021/11/23 03:10:26;;;;;;;28.65;15.23;;;;;;;5.67;100.00;100818.44;5075253;28;20044;-75
2021/11/23 03:12:56;;;;;;;30.08;16.50;;;;;;;5.87;100.00;100822.25;5075526;28;20056;-74
2021/11/23 03:15:25;;;;;;;28.95;15.38;;;;;;;6.00;100.00;100815.72;5074787;28;20051;-76
2021/11/23 03:17:54;;;;;;;30.95;16.02;;;;;;;5.94;100.00;100813.25;5075316;28;20114;-76
2021/11/23 03:20:25;;;;;;;30.45;15.93;;;;;;;5.81;100.00;100822.47;5074697;28;20051;-76
2021/11/23 03:22:55;;;;;;;28.63;15.48;;;;;;;5.77;100.00;100831.41;5074995;28;20040;-76
2021/11/23 03:25:23;;;;;;;28.00;14.65;;;;;;;5.80;100.00;100826.03;5074871;28;20492;-76
2021/11/23 03:27:52;;;;;;;27.42;14.60;;;;;;;6.01;100.00;100833.31;5075133;28;20048;-75
2021/11/23 03:30:23;;;;;;;27.08;14.45;;;;;;;5.96;100.00;100838.75;5074800;28;20055;-76
2021/11/23 03:32:54;;;;;;;28.30;14.13;;;;;;;5.87;100.00;100848.72;5075236;28;20482;-75
2021/11/23 03:35:24;;;;;;;23.85;13.45;;;;;;;6.01;100.00;100849.22;5074408;28;20571;-75
2021/11/23 03:37:53;;;;;;;26.60;13.40;;;;;;;5.99;100.00;100856.34;5074786;28;20401;-77
2021/11/23 03:40:23;;;;;;;24.92;12.23;;;;;;;6.03;100.00;100857.97;5074664;28;20500;-77
2021/11/23 03:42:52;;;;;;;24.10;12.65;;;;;;;5.92;100.00;100855.66;5074542;28;20041;-77
2021/11/23 03:45:20;;;;;;;20.88;11.32;;;;;;;5.79;100.00;100850.75;5074490;28;20413;-77
2021/11/23 03:47:49;;;;;;;20.67;11.60;;;;;;;5.73;100.00;100857.97;5074476;28;20508;-86
2021/11/23 03:50:17;;;;;;;21.70;12.05;;;;;;;5.81;100.00;100862.19;5075091;28;20041;-84
2021/11/23 03:52:48;;;;;;;21.63;11.98;;;;;;;5.68;100.00;100862.53;5080231;28;20044;-83
2021/11/23 03:55:18;;;;;;;19.80;10.70;;;;;;;5.71;100.00;100861.59;5074363;28;20448;-83
2021/11/23 03:57:49;;;;;;;20.10;10.73;;;;;;;5.87;100.00;100860.19;5074937;28;20387;-83
2021/11/23 04:00:20;;;;;;;19.85;10.80;;;;;;;5.72;100.00;100864.19;5074359;28;20110;-80
2021/11/23 04:02:49;;;;;;;20.50;11.32;;;;;;;5.65;100.00;100852.06;5074486;28;20039;-79
2021/11/23 04:05:20;;;;;;;19.33;10.95;;;;;;;5.70;100.00;100857.22;5074143;28;20059;-84
2021/11/23 04:07:49;;;;;;;21.38;11.05;;;;;;;5.64;100.00;100863.56;5074620;28;20127;-84
2021/11/23 04:10:19;;;;;;;18.27;9.93;;;;;;;5.62;100.00;100860.09;5074839;28;20048;-84
2021/11/23 04:12:48;;;;;;;20.17;10.60;;;;;;;5.55;100.00;100868.25;5077969;28;20044;-84
2021/11/23 04:15:16;;;;;;;19.98;10.57;;;;;;;5.34;100.00;100875.03;5075496;28;20094;-80
2021/11/23 04:17:45;;;;;;;17.33;10.13;;;;;;;5.52;100.00;100879.81;5075416;28;20382;-80
2021/11/23 04:20:14;;;;;;;18.67;10.10;;;;;;;5.43;100.00;100872.13;5075574;28;20052;-80
2021/11/23 04:22:43;;;;;;;17.77;9.57;;;;;;;5.57;100.00;100869.94;5074919;28;20040;-80
2021/11/23 04:25:13;;;;;;;18.95;10.40;;;;;;;5.46;100.00;100878.19;5074663;28;20515;-81
2021/11/23 04:27:41;;;;;;;20.92;10.38;;;;;;;5.59;100.00;100877.81;5073794;28;20060;-81
2021/11/23 04:30:12;;;;;;;23.13;11.35;;;;;;;5.53;100.00;100884.19;5074257;28;20131;-81
2021/11/23 04:32:42;;;;;;;19.85;10.55;;;;;;;5.56;100.00;100881.44;5073975;28;20094;-80
2021/11/23 04:35:12;;;;;;;22.17;11.88;;;;;;;5.61;100.00;100889.25;5073167;28;20048;-75
2021/11/23 04:37:41;;;;;;;20.42;10.85;;;;;;;5.58;100.00;100886.69;5073486;28;20037;-77
2021/11/23 04:40:11;;;;;;;17.92;9.63;;;;;;;5.58;100.00;100892.84;5073900;28;20044;-76
2021/11/23 04:42:41;;;;;;;19.33;11.07;;;;;;;5.54;100.00;100888.56;5073503;28;20111;-87
2021/11/23 04:45:13;;;;;;;19.73;10.20;;;;;;;5.46;100.00;100896.72;5073610;28;20043;-89
2021/11/23 04:47:42;;;;;;;22.05;11.02;;;;;;;5.47;100.00;100890.50;5073551;28;20481;-89
2021/11/23 04:50:12;;;;;;;18.25;9.52;;;;;;;5.47;100.00;100900.22;5073788;28;20040;-89
2021/11/23 04:52:40;;;;;;;18.88;10.10;;;;;;;5.45;100.00;100907.34;5073530;28;20080;-88
2021/11/23 04:55:10;;;;;;;17.35;9.63;;;;;;;5.42;100.00;100910.09;5073392;28;20390;-89
2021/11/23 04:57:40;;;;;;;16.80;9.65;;;;;;;5.37;100.00;100910.19;5072777;28;20169;-88
2021/11/23 05:00:11;;;;;;;16.85;9.43;;;;;;;5.35;100.00;100908.53;5073753;28;20048;-88
2021/11/23 05:02:39;;;;;;;15.82;9.05;;;;;;;5.35;100.00;100911.16;5073067;28;20124;-78
2021/11/23 05:05:09;;;;;;;21.05;9.45;;;;;;;5.28;100.00;100914.88;5073054;28;20059;-78
2021/11/23 05:07:38;;;;;;;19.83;9.70;;;;;;;5.25;100.00;100914.97;5072761;28;20054;-78
2021/11/23 05:10:07;;;;;;;18.75;9.90;;;;;;;5.29;100.00;100920.13;5073342;28;20037;-77
2021/11/23 05:12:36;;;;;;;17.40;9.23;;;;;;;5.28;100.00;100918.41;5072199;28;20470;-77
2021/11/23 05:15:07;;;;;;;16.67;9.05;;;;;;;5.37;100.00;100925.22;5073326;28;20036;-79
2021/11/23 05:17:36;;;;;;;18.27;9.20;;;;;;;5.27;100.00;100919.31;5072878;28;20098;-79
2021/11/23 05:20:05;;;;;;;18.88;9.70;;;;;;;5.40;100.00;100930.41;5073145;28;20055;-78
2021/11/23 05:22:34;;;;;;;17.45;9.30;;;;;;;5.30;100.00;100936.88;5072490;28;20044;-78
2021/11/23 05:25:02;;;;;;;17.90;10.13;;;;;;;5.20;100.00;100940.69;5073130;28;20055;-78
2021/11/23 05:27:31;;;;;;;18.55;9.60;;;;;;;5.17;100.00;100939.00;5072839;28;20041;-78
2021/11/23 05:30:00;;;;;;;18.50;9.45;;;;;;;5.17;100.00;100947.78;5072761;28;20072;-77
2021/11/23 05:32:30;;;;;;;19.25;9.73;;;;;;;5.30;100.00;100944.81;5072782;28;20048;-76
2021/11/23 05:34:58;;;;;;;18.67;9.55;;;;;;;5.21;100.00;100947.69;5072996;28;20049;-77
2021/11/23 05:37:26;;;;;;;16.45;9.23;;;;;;;5.24;100.00;100950.28;5072914;28;20055;-77
2021/11/23 05:39:54;;;;;;;17.58;9.75;;;;;;;5.13;100.00;100954.09;5073880;28;20086;-75
2021/11/23 05:42:23;;;;;;;18.00;9.40;;;;;;;5.16;100.00;100955.78;5072545;28;20040;-74
2021/11/23 05:44:51;;;;;;;19.13;9.40;;;;;;;5.17;100.00;100953.06;5072283;28;20535;-77
2021/11/23 05:47:19;;;;;;;17.30;9.43;;;;;;;5.16;100.00;100964.56;5072623;28;20045;-77
2021/11/23 05:49:49;;;;;;;20.60;10.27;;;;;;;4.91;100.00;100971.41;5072858;28;20051;-82
2021/11/23 05:52:18;;;;;;;18.25;9.35;;;;;;;5.07;100.00;100956.00;5073136;28;20437;-81
2021/11/23 05:54:49;;;;;;;18.50;9.30;;;;;;;5.05;100.00;100958.69;5072745;28;20478;-81
2021/11/23 05:57:17;;;;;;;19.52;9.30;;;;;;;5.03;100.00;100957.88;5073257;28;20059;-81
2021/11/23 05:59:45;;;;;;;17.73;10.27;;;;;;;5.13;100.00;100967.31;5072340;28;20048;-83
2021/11/23 06:02:13;;;;;;;16.95;9.25;;;;;;;4.88;100.00;100974.13;5073086;28;20047;-78
2021/11/23 06:04:42;;;;;;;17.50;8.80;;;;;;;4.85;100.00;100975.06;5072363;28;20040;-77
2021/11/23 06:07:11;;;;;;;18.63;9.57;;;;;;;4.89;100.00;100981.16;5078573;28;20497;-75
2021/11/23 06:09:40;;;;;;;18.77;9.55;;;;;;;4.86;100.00;100986.53;5071888;28;20508;-74
2021/11/23 06:12:09;;;;;;;15.82;8.90;;;;;;;4.95;100.00;100988.94;5072561;28;20150;-81
2021/11/23 06:14:39;;;;;;;19.98;10.38;;;;;;;4.83;100.00;100995.41;5073912;28;20128;-82
2021/11/23 06:17:09;;;;;;;18.35;9.27;;;;;;;4.77;100.00;100994.69;5072763;28;20095;-79
2021/11/23 06:19:38;;;;;;;19.33;10.32;;;;;;;4.84;100.00;101005.06;5072106;28;20509;-76
2021/11/23 06:22:07;;;;;;;20.15;9.77;;;;;;;4.91;100.00;101010.19;5072582;28;20490;-79
2021/11/23 06:24:39;;;;;;;19.33;9.20;;;;;;;4.91;100.00;101012.81;5074854;28;20049;-80
2021/11/23 06:27:07;;;;;;;17.38;9.10;;;;;;;4.90;100.00;101017.25;5076141;28;20045;-80
2021/11/23 06:29:35;;;;;;;21.63;10.27;;;;;;;4.82;100.00;101027.13;5075472;28;20049;-78
2021/11/23 06:32:04;;;;;;;19.33;9.43;;;;;;;4.96;100.00;101022.41;5076015;28;20040;-79
2021/11/23 06:34:33;;;;;;;17.02;9.35;;;;;;;4.82;100.00;101028.00;5075539;28;20032;-78
2021/11/23 06:37:01;;;;;;;16.45;9.52;;;;;;;4.93;100.00;101035.69;5075620;28;20508;-78
2021/11/23 06:39:30;;;;;;;16.98;8.80;;;;;;;5.06;100.00;101042.41;5075900;28;20079;-78
2021/11/23 06:41:59;;;;;;;21.42;10.13;;;;;;;4.96;100.00;101046.19;5075705;28;20105;-78
2021/11/23 06:44:27;;;;;;;17.30;9.35;;;;;;;4.98;100.00;101049.66;5075871;28;20036;-78
2021/11/23 06:46:55;;;;;;;18.70;9.50;;;;;;;4.94;100.00;101047.13;5074913;28;20094;-76
2021/11/23 06:49:23;;;;;;;17.88;9.68;;;;;;;4.93;100.00;101053.34;5076006;28;20538;-78
2021/11/23 06:51:51;;;;;;;17.23;9.27;;;;;;;4.95;100.00;101057.66;5075554;28;20068;-79
2021/11/23 06:54:20;;;;;;;17.42;8.98;;;;;;;4.97;100.00;101055.84;5076155;28;20060;-80
2021/11/23 06:56:53;;;;;;;19.75;9.77;;;;;;;5.09;100.00;101060.84;5075217;28;20429;-80
2021/11/23 06:59:23;;;;;;;16.55;9.50;;;;;;;4.98;100.00;101065.53;5075831;28;20110;-79
2021/11/23 07:01:52;;;;;;;19.02;9.80;;;;;;;5.03;100.00;101057.50;5075427;28;20051;-81
2021/11/23 07:04:20;;;;;;;17.65;9.55;;;;;;;5.08;100.00;101059.09;5075446;28;20053;-81
2021/11/23 07:06:48;;;;;;;18.40;9.52;;;;;;;5.08;100.00;101055.59;5075310;28;20397;-75
2021/11/23 07:09:17;;;;;;;18.48;9.73;;;;;;;5.19;100.00;101056.19;5075529;28;20036;-77
2021/11/23 07:11:45;;;;;;;16.25;8.73;;;;;;;5.02;100.00;101058.38;5075037;28;20387;-76
2021/11/23 07:14:14;;;;;;;18.08;9.20;;;;;;;5.04;100.00;101056.59;5074086;28;20080;-77
2021/11/23 07:16:43;;;;;;;19.05;10.13;;;;;;;5.13;100.00;101059.00;5074844;28;20063;-77
2021/11/23 07:19:12;;;;;;;16.90;9.23;;;;;;;5.17;100.00;101063.28;5074374;28;20410;-77
2021/11/23 07:21:40;;;;;;;15.57;9.55;;;;;;;5.15;100.00;101068.63;5074644;28;20052;-79
2021/11/23 07:24:09;;;;;;;18.27;9.45;;;;;;;5.27;100.00;101067.44;5074828;28;20072;-78
2021/11/23 07:26:38;;;;;;;21.33;9.95;;;;;;;5.13;100.00;101067.81;5074882;28;20045;-78
2021/11/23 07:29:09;;;;;;;20.83;9.38;;;;;;;5.22;100.00;101069.34;5075156;28;20447;-78
2021/11/23 07:31:38;;;;;;;18.85;10.02;;;;;;;5.26;100.00;101065.72;5074874;28;20047;-77
2021/11/23 07:34:07;;;;;;;17.90;9.65;;;;;;;5.37;100.00;101074.22;5074942;28;20048;-77
2021/11/23 07:36:36;;;;;;;17.77;9.52;;;;;;;5.26;100.00;101068.34;5073913;28;20060;-77
2021/11/23 07:39:06;;;;;;;20.77;9.88;;;;;;;5.17;100.00;101065.94;5075112;28;20447;-77
2021/11/23 07:41:35;;;;;;;19.20;10.02;;;;;;;5.18;100.00;101079.13;5075059;28;20481;-77
2021/11/23 07:44:05;;;;;;;18.98;9.02;;;;;;;5.23;100.00;101079.03;5074817;28;20041;-77
2021/11/23 07:46:33;;;;;;;22.45;10.60;;;;;;;5.22;100.00;101084.34;5074800;28;20037;-77
2021/11/23 07:49:02;;;;;;;18.58;10.45;;;;;;;5.16;100.00;101094.16;5074734;28;20041;-77
2021/11/23 07:51:32;;;;;;;19.08;9.80;;;;;;;5.21;100.00;101095.81;5074237;28;20499;-77
2021/11/23 07:54:00;;;;;;;19.58;9.90;;;;;;;5.17;100.00;101098.53;5073859;28;20553;-77
2021/11/23 07:56:29;;;;;;;21.02;9.98;;;;;;;5.12;100.00;101096.94;5074573;28;20057;-77
2021/11/23 07:58:57;;;;;;;22.40;10.10;;;;;;;5.14;100.00;101103.91;5074140;28;20098;-77
2021/11/23 08:01:25;;;;;;;21.98;10.65;;;;;;;5.02;100.00;101106.88;5074629;28;20044;-77
2021/11/23 08:03:54;;;;;;;20.52;10.85;;;;;;;5.01;100.00;101096.31;5073830;28;20043;-77
2021/11/23 08:06:27;;;;;;;21.70;10.38;;;;;;;4.96;100.00;101100.84;5073463;28;20084;-77
2021/11/23 08:08:57;;;;;;;20.60;10.27;;;;;;;4.99;100.00;101108.69;5074152;28;20098;-78
2021/11/23 08:11:26;;;;;;;21.15;10.68;;;;;;;4.97;100.00;101111.38;5074360;28;20048;-77
2021/11/23 08:13:54;;;;;;;20.30;10.52;;;;;;;4.93;100.00;101116.78;5074070;28;20048;-77
2021/11/23 08:16:23;;;;;;;19.85;11.02;;;;;;;4.90;100.00;101117.72;5073993;28;20474;-77
2021/11/23 08:18:52;;;;;;;20.33;10.82;;;;;;;4.89;100.00;101118.63;5073509;28;20043;-77
2021/11/23 08:21:20;;;;;;;20.00;10.95;;;;;;;4.88;100.00;101116.88;5073762;28;20389;-77
2021/11/23 08:23:48;;;;;;;22.35;10.98;;;;;;;4.98;100.00;101126.34;5073004;28;20496;-77
2021/11/23 08:26:18;;;;;;;22.35;11.05;;;;;;;5.07;100.00;101128.75;5073931;28;20048;-78
2021/11/23 08:28:47;;;;;;;19.42;10.15;;;;;;;5.16;100.00;101128.53;5073138;28;20109;-77
2021/11/23 08:31:15;;;;;;;20.77;11.30;;;;;;;5.07;100.00;101123.47;5073172;28;20482;-78
2021/11/23 08:33:45;;;;;;;21.30;11.32;;;;;;;5.12;100.00;101126.03;5073573;28;20047;-77
2021/11/23 08:36:14;;;;;;;21.33;11.02;;;;;;;5.26;100.00;101125.69;5073574;28;20371;-77
2021/11/23 08:38:43;;;;;;;20.30;11.23;;;;;;;5.38;100.00;101133.31;5073386;28;20053;-76
2021/11/23 08:41:12;;;;;;;20.25;10.70;;;;;;;5.66;100.00;101139.63;5073848;28;20423;-77
2021/11/23 08:43:41;;;;;;;19.10;10.45;;;;;;;5.85;100.00;101149.75;5073613;28;20072;-77
2021/11/23 08:46:09;;;;;;;18.73;10.68;;;;;;;5.96;100.00;101148.59;5073354;28;20044;-78
2021/11/23 08:48:38;;;;;;;17.75;10.23;;;;;;;6.17;99.75;101149.78;5073084;28;20059;-77
2021/11/23 08:51:10;;;;;;;20.67;10.77;;;;;;;6.07;100.00;101150.06;5073638;28;20075;-77
2021/11/23 08:53:38;;;;;;;20.02;10.38;;;;;;;6.13;99.36;101144.63;5073326;28;20048;-77
2021/11/23 08:56:08;;;;;;;20.40;10.27;;;;;;;6.12;99.30;101148.19;5073010;28;20052;-77
2021/11/23 08:58:39;;;;;;;19.75;10.77;;;;;;;6.05;99.66;101152.75;5073386;28;20041;-77
2021/11/23 09:01:09;;;;;;;18.08;10.70;;;;;;;6.04;98.67;101151.03;5073659;28;20052;-75
2021/11/23 09:03:39;;;;;;;20.60;10.70;;;;;;;6.07;99.55;101150.94;5073214;28;20048;-78
2021/11/23 09:06:08;;;;;;;19.60;10.32;;;;;;;5.97;98.71;101165.34;5073331;28;20052;-77
2021/11/23 09:08:41;;;;;;;20.40;11.45;;;;;;;5.91;98.41;101160.22;5073015;28;20109;-77
2021/11/23 09:11:10;;;;;;;23.00;12.18;;;;;;;5.82;99.64;101173.69;5072916;28;20037;-77
2021/11/23 09:13:38;;;;;;;22.95;11.82;;;;;;;5.96;100.00;101168.91;5072410;28;20056;-77
2021/11/23 09:16:06;;;;;;;22.92;11.65;;;;;;;5.85;99.18;101169.16;5072920;28;20098;-77
2021/11/23 09:18:35;;;;;;;20.77;11.82;;;;;;;6.03;99.50;101171.34;5073197;28;20044;-77
2021/11/23 09:21:04;;;;;;;22.50;11.63;;;;;;;5.99;99.81;101168.84;5072903;28;20036;-77
2021/11/23 09:23:32;;;;;;;20.40;11.13;;;;;;;6.17;98.34;101157.72;5072953;28;20045;-77
2021/11/23 09:26:00;;;;;;;24.30;12.68;;;;;;;6.18;98.35;101161.28;5072825;28;20120;-77
2021/11/23 09:28:29;;;;;;;23.98;12.48;;;;;;;6.21;98.90;101162.03;5072774;28;20090;-77
2021/11/23 09:30:58;;;;;;;22.13;11.90;;;;;;;6.17;98.44;101164.78;5072958;28;20041;-77
2021/11/23 09:33:26;;;;;;;22.38;12.52;;;;;;;6.11;97.99;101168.50;5072751;28;20051;-77
2021/11/23 09:35:56;;;;;;;25.88;12.55;;;;;;;6.09;99.36;101170.34;5072679;28;20127;-77
2021/11/23 09:38:24;;;;;;;19.38;11.20;;;;;;;6.29;98.13;101168.00;5073083;28;20048;-77
2021/11/23 09:40:52;;;;;;;23.35;12.82;;;;;;;6.17;98.44;101165.66;5072716;28;20094;-75
2021/11/23 09:43:21;;;;;;;26.15;12.05;;;;;;;6.16;98.62;101171.88;5072908;28;20056;-77
2021/11/23 09:45:49;;;;;;;22.80;12.38;;;;;;;6.18;97.54;101175.38;5072614;28;20051;-76
2021/11/23 09:48:18;;;;;;;24.00;12.77;;;;;;;6.15;97.27;101169.28;5072640;28;20048;-78
2021/11/23 09:50:46;;;;;;;21.08;12.27;;;;;;;6.12;97.68;101158.78;5072343;28;20036;-77
2021/11/23 09:53:18;;;;;;;26.88;12.13;;;;;;;6.04;97.08;101166.91;5072205;28;20041;-77
2021/11/23 09:55:47;;;;;;;20.67;12.43;;;;;;;5.83;99.49;101151.56;5071582;28;20055;-78
2021/11/23 09:58:16;;;;;;;17.73;11.07;;;;;;;5.78;97.63;101169.34;5071908;28;20041;-77
2021/11/23 10:00:48;;;;;;;23.80;11.75;;;;;;;5.69;98.21;101160.75;5076014;28;20078;-77
2021/11/23 10:03:25;;;;;;;21.98;12.02;;;;;;;5.59;99.92;101161.88;5077267;28;20051;-77
2021/11/23 10:06:06;;;;;;;20.55;11.45;;;;;;;5.65;97.57;101159.09;5076352;28;20066;-77
2021/11/23 10:08:36;;;;;;;20.42;12.02;;;;;;;5.62;98.42;101153.88;5076468;28;20040;-78
2021/11/23 10:11:05;;;;;;;19.50;10.45;;;;;;;5.77;95.71;101147.31;5076425;28;20495;-78
2021/11/23 10:13:43;;;;;;;18.85;10.52;;;;;;;5.86;95.60;101141.75;5076242;28;20044;-77
2021/11/23 10:16:11;;;;;;;19.17;9.43;;;;;;;5.91;94.43;101129.31;5076423;28;20048;-78
2021/11/23 10:18:51;;;;;;;15.18;7.90;;;;;;;6.10;91.97;101139.41;5076271;28;20063;-78
2021/11/23 10:21:20;;;;;;;14.30;8.85;;;;;;;6.03;91.05;101133.41;5076523;28;20068;-77
2021/11/23 10:23:52;;;;;;;17.00;8.45;;;;;;;5.99;91.40;101126.47;5076060;28;20449;-79
2021/11/23 10:26:23;;;;;;;13.63;7.95;;;;;;;6.01;90.01;101130.81;5076593;28;20041;-78
2021/11/23 10:28:55;;;;;;;15.85;8.02;;;;;;;5.83;90.23;101135.69;5075845;28;20044;-78
2021/11/23 10:31:30;;;;;;;16.42;9.05;;;;;;;5.84;91.53;101111.81;5076269;28;20045;-77
2021/11/23 10:33:59;;;;;;;17.27;9.10;;;;;;;5.96;90.30;101123.88;5075941;28;20067;-78
2021/11/23 10:36:30;;;;;;;18.02;10.38;;;;;;;5.97;90.84;101115.03;5076159;28;20043;-77
2021/11/23 10:39:07;;;;;;;18.90;9.43;;;;;;;6.03;90.91;101117.50;5075773;28;20045;-77
2021/11/23 10:41:41;;;;;;;17.67;9.68;;;;;;;6.05;90.93;101106.88;5076063;28;20098;-77
2021/11/23 10:44:16;;;;;;;16.60;8.88;;;;;;;6.16;89.75;101108.31;5075528;28;20044;-77
2021/11/23 10:46:52;;;;;;;15.50;9.13;;;;;;;6.15;88.76;101105.69;5075567;28;20040;-78
2021/11/23 10:49:27;;;;;;;17.38;9.43;;;;;;;6.20;87.30;101114.41;5075952;28;20517;-77
2021/11/23 10:51:56;;;;;;;17.67;9.23;;;;;;;6.22;86.21;101107.28;5075633;28;20048;-78
2021/11/23 10:54:25;;;;;;;15.50;8.25;;;;;;;6.19;86.46;101108.25;5075654;28;20547;-78
2021/11/23 10:56:58;;;;;;;15.32;8.70;;;;;;;6.29;84.49;101112.34;5075541;28;20137;-78
2021/11/23 10:59:31;;;;;;;15.70;8.85;;;;;;;6.22;85.23;101116.09;5075701;28;20040;-77
2021/11/23 11:01:59;;;;;;;13.98;8.50;;;;;;;6.27;83.89;101113.28;5075398;28;20041;-77
2021/11/23 11:04:29;;;;;;;15.80;8.73;;;;;;;6.26;84.49;101101.81;5074349;28;20466;-79
2021/11/23 11:06:58;;;;;;;12.05;7.43;;;;;;;6.21;82.15;101117.00;5075324;28;20040;-77
2021/11/23 11:09:30;;;;;;;15.52;8.13;;;;;;;6.30;81.38;101105.28;5074899;28;20040;-76
2021/11/23 11:11:58;;;;;;;14.55;7.22;;;;;;;6.14;82.10;101104.84;5074597;28;20051;-77
2021/11/23 11:14:28;;;;;;;15.10;7.20;;;;;;;6.10;81.59;101092.59;5075413;28;20048;-76
2021/11/23 11:16:57;;;;;;;10.93;5.85;;;;;;;6.10;81.05;101092.59;5075093;28;20109;-75
2021/11/23 11:19:41;;;;;;;12.38;6.82;;;;;;;6.01;83.12;101092.84;5074935;28;20375;-76
2021/11/23 11:22:09;;;;;;;13.57;7.82;;;;;;;6.13;84.02;101087.22;5074370;28;20094;-78
2021/11/23 11:24:42;;;;;;;12.27;7.72;;;;;;;6.12;83.47;101095.19;5074653;28;20162;-77